Main page
METAR-TAF:

METAR-TAF

Airports :

Wick Airport

Wick, Scotland

latitude: 58-27N, longitude: 003-05W, elevation: 39 m

Current weather observation

The report was made 21 minutes ago, at 01:50 UTC
Wind 5 kt from the East/Southeast
Temperature 9°C
Humidity 87%
Pressure 1017 hPa
Visibility 10 km or more

METAR: EGPC 190150Z AUTO 12005KT 9999 BKN037/// 09/07 Q1017

Time: 03:11 (02:11 UTC)

Forecast

The report was made 3 hours and 18 minutes ago, at 22:53 UTC
Forecast valid from 19 at 00 UTC to 19 at 09 UTC
Wind 6 kt from the East/Southeast
Visibility 10 km or more
Scattered clouds at a height of 4000 ft

TAF: EGPC 182253Z 1900/1909 11006KT 9999 SCT040

Weather observations and forecasts of more than 4000 airports (METAR and TAF reports).

The available stations are represented by yellow and red dots on the map.

Hover mouse over dot to see the name of the station.

Then click to see weather observations and forecasts.

To change the map : click on the green buttons with a black cross to zoom in, on the green button with a dash to zoom out, or on the green arrows for adjacent maps.


METAR-TAF: